createdAt,value
2022-12-25T00:02:24.867Z,11.79
2022-12-25T00:04:56.692Z,12.75
2022-12-25T00:07:28.268Z,12.43
2022-12-25T00:09:59.845Z,12.19
2022-12-25T00:12:31.465Z,13.20
2022-12-25T00:15:03.770Z,12.56
2022-12-25T00:17:35.422Z,12.12
2022-12-25T00:20:08.372Z,12.09
2022-12-25T00:22:39.972Z,12.77
2022-12-25T00:25:11.570Z,12.52
2022-12-25T00:27:43.180Z,11.97
2022-12-25T00:30:14.881Z,12.65
2022-12-25T00:32:46.456Z,12.95
2022-12-25T00:35:18.287Z,12.38
2022-12-25T00:37:49.863Z,11.81
2022-12-25T00:40:21.404Z,12.64
2022-12-25T00:42:53.052Z,12.34
2022-12-25T00:45:24.778Z,13.52
2022-12-25T00:47:56.508Z,14.38
2022-12-25T00:50:28.088Z,13.10
2022-12-25T00:52:59.721Z,12.13
2022-12-25T00:55:31.576Z,12.02
2022-12-25T00:58:03.178Z,12.03
2022-12-25T01:00:34.792Z,11.79
2022-12-25T01:03:06.520Z,11.36
2022-12-25T01:05:38.208Z,11.91
2022-12-25T01:08:10.212Z,12.66
2022-12-25T01:10:41.749Z,13.16
2022-12-25T01:13:13.296Z,12.62
2022-12-25T01:15:44.838Z,12.86
2022-12-25T01:18:16.374Z,12.85
2022-12-25T01:20:48.505Z,12.85
2022-12-25T01:23:20.068Z,12.85
2022-12-25T01:25:51.610Z,13.42
2022-12-25T01:28:23.174Z,12.99
2022-12-25T01:30:54.752Z,13.66
2022-12-25T01:33:28.081Z,13.49
2022-12-25T01:35:59.623Z,13.14
2022-12-25T01:38:31.199Z,12.98
2022-12-25T01:41:02.751Z,13.55
2022-12-25T01:43:34.797Z,13.37
2022-12-25T01:46:06.416Z,12.74
2022-12-25T01:48:39.622Z,13.11
2022-12-25T01:51:26.382Z,12.81
2022-12-25T01:54:04.876Z,13.09
2022-12-25T01:56:40.077Z,13.83
2022-12-25T01:59:17.403Z,12.75
2022-12-25T02:01:49.537Z,12.93
2022-12-25T02:04:42.048Z,12.96
2022-12-25T02:07:20.391Z,13.00
2022-12-25T02:09:53.274Z,13.68
2022-12-25T02:12:30.183Z,13.43
2022-12-25T02:15:15.494Z,13.24
2022-12-25T02:18:07.201Z,13.71
2022-12-25T02:21:04.922Z,13.82
2022-12-25T02:24:21.676Z,14.19
2022-12-25T02:26:56.121Z,14.22
2022-12-25T02:29:56.944Z,13.70
2022-12-25T02:32:52.608Z,14.02
2022-12-25T02:35:31.264Z,13.83
2022-12-25T02:38:12.217Z,13.54
2022-12-25T02:40:51.321Z,13.25
2022-12-25T02:43:43.265Z,13.61
2022-12-25T02:46:19.115Z,13.29
2022-12-25T02:48:59.254Z,13.60
2022-12-25T02:51:37.084Z,13.53
2022-12-25T02:54:17.392Z,13.78
2022-12-25T02:56:52.745Z,14.61
2022-12-25T02:59:28.674Z,14.58
2022-12-25T03:02:04.681Z,13.85
2022-12-25T03:04:39.033Z,13.76
2022-12-25T03:07:17.009Z,13.87
2022-12-25T03:10:00.949Z,14.62
2022-12-25T03:13:01.940Z,14.89
2022-12-25T03:15:34.720Z,15.17
2022-12-25T03:18:15.646Z,15.15
2022-12-25T03:20:47.183Z,14.96
2022-12-25T03:23:24.568Z,14.66
2022-12-25T03:25:56.210Z,14.89
2022-12-25T03:28:29.113Z,14.67
2022-12-25T03:31:18.417Z,14.56
2022-12-25T03:34:15.054Z,14.95
2022-12-25T03:37:00.214Z,15.33
2022-12-25T03:40:14.484Z,15.74
2022-12-25T03:42:59.778Z,15.87
2022-12-25T03:45:53.274Z,16.41
2022-12-25T03:48:30.632Z,16.52
2022-12-25T03:51:12.516Z,17.42
2022-12-25T03:53:56.128Z,17.51
2022-12-25T03:56:31.089Z,17.62
2022-12-25T03:59:02.856Z,18.00
2022-12-25T04:01:34.540Z,17.40
2022-12-25T04:04:06.228Z,18.19
2022-12-25T04:06:38.435Z,17.42
2022-12-25T04:09:09.960Z,18.19
2022-12-25T04:11:41.530Z,18.33
2022-12-25T04:14:14.049Z,18.66
2022-12-25T04:16:45.696Z,18.43
2022-12-25T04:19:17.236Z,18.16
2022-12-25T04:21:48.843Z,18.06
2022-12-25T04:24:20.447Z,18.32
2022-12-25T04:26:52.014Z,18.91
2022-12-25T04:29:23.614Z,19.00
2022-12-25T04:31:55.193Z,19.13
2022-12-25T04:34:29.588Z,19.86
2022-12-25T04:37:01.201Z,19.59
2022-12-25T04:39:32.778Z,20.59
2022-12-25T04:42:04.723Z,21.11
2022-12-25T04:44:36.283Z,20.14
2022-12-25T04:47:11.525Z,19.68
2022-12-25T04:49:43.413Z,19.35
2022-12-25T04:52:14.973Z,19.12
2022-12-25T04:54:46.534Z,20.10
2022-12-25T04:57:18.083Z,18.83
2022-12-25T04:59:49.698Z,18.16
2022-12-25T05:02:21.384Z,18.17
2022-12-25T05:04:53.183Z,18.20
2022-12-25T05:07:24.776Z,19.92
2022-12-25T05:09:56.400Z,20.54
2022-12-25T05:12:27.978Z,22.61
2022-12-25T05:14:59.571Z,23.45
2022-12-25T05:17:31.226Z,24.13
2022-12-25T05:20:03.588Z,24.54
2022-12-25T05:22:35.137Z,24.06
2022-12-25T05:25:07.058Z,24.70
2022-12-25T05:27:38.612Z,24.09
2022-12-25T05:30:10.424Z,24.91
2022-12-25T05:32:42.071Z,24.46
2022-12-25T05:35:14.022Z,22.66
2022-12-25T05:37:45.628Z,22.18
2022-12-25T05:40:17.312Z,21.57
2022-12-25T05:42:49.081Z,21.06
2022-12-25T05:45:20.745Z,21.17
2022-12-25T05:47:52.655Z,20.49
2022-12-25T05:50:24.332Z,19.45
2022-12-25T05:53:11.563Z,19.92
2022-12-25T05:55:43.914Z,20.04
2022-12-25T05:58:15.543Z,18.87
2022-12-25T06:00:47.102Z,18.76
2022-12-25T06:03:18.769Z,17.78
2022-12-25T06:05:50.533Z,16.90
2022-12-25T06:08:22.104Z,16.53
2022-12-25T06:10:53.685Z,16.61
2022-12-25T06:13:25.377Z,16.35
2022-12-25T06:15:57.090Z,15.54
2022-12-25T06:18:28.714Z,14.41
2022-12-25T06:21:00.242Z,12.16
2022-12-25T06:23:31.854Z,11.61
2022-12-25T06:26:10.267Z,9.29
2022-12-25T06:28:42.424Z,9.54
2022-12-25T06:31:17.478Z,9.67
2022-12-25T06:33:49.740Z,9.25
2022-12-25T06:36:27.358Z,9.40
2022-12-25T06:39:02.142Z,9.36
2022-12-25T06:41:33.860Z,9.18
2022-12-25T06:44:05.558Z,9.07
2022-12-25T06:46:37.127Z,8.17
2022-12-25T06:49:10.053Z,7.68
2022-12-25T06:51:41.607Z,6.26
2022-12-25T06:54:13.589Z,6.41
2022-12-25T06:56:45.135Z,5.98
2022-12-25T06:59:17.120Z,5.85
2022-12-25T07:01:55.860Z,5.59
2022-12-25T07:04:30.898Z,4.99
2022-12-25T07:07:08.355Z,5.31
2022-12-25T07:09:41.250Z,4.88
2022-12-25T07:12:19.455Z,4.93
2022-12-25T07:14:54.669Z,4.90
2022-12-25T07:17:26.445Z,4.81
2022-12-25T07:19:58.035Z,4.85
2022-12-25T07:22:29.991Z,5.13
2022-12-25T07:25:01.585Z,4.38
2022-12-25T07:27:33.346Z,4.66
2022-12-25T07:30:05.479Z,4.48
2022-12-25T07:32:37.060Z,4.72
2022-12-25T07:35:08.913Z,4.69
2022-12-25T07:37:40.635Z,5.03
2022-12-25T07:40:12.823Z,5.02
2022-12-25T07:42:44.388Z,5.24
2022-12-25T07:45:16.097Z,4.44
2022-12-25T07:47:47.766Z,4.36
2022-12-25T07:50:19.548Z,4.09
2022-12-25T07:52:51.127Z,3.79
2022-12-25T07:55:23.117Z,4.03
2022-12-25T07:57:54.733Z,4.16
2022-12-25T08:00:26.441Z,4.07
2022-12-25T08:02:59.353Z,4.33
2022-12-25T08:05:32.762Z,4.41
2022-12-25T08:08:04.460Z,4.84
2022-12-25T08:10:36.328Z,4.52
2022-12-25T08:13:14.216Z,4.46
2022-12-25T08:15:46.234Z,4.73
2022-12-25T08:18:17.805Z,5.18
2022-12-25T08:20:49.443Z,4.72
2022-12-25T08:23:21.047Z,4.45
2022-12-25T08:25:52.694Z,4.61
2022-12-25T08:28:24.374Z,4.54
2022-12-25T08:30:56.996Z,4.80
2022-12-25T08:33:28.660Z,5.22
2022-12-25T08:36:06.184Z,5.63
2022-12-25T08:38:38.939Z,5.98
2022-12-25T08:41:11.989Z,6.13
2022-12-25T08:43:44.158Z,6.31
2022-12-25T08:46:16.024Z,6.02
2022-12-25T08:48:49.254Z,5.70
2022-12-25T08:51:24.099Z,5.92
2022-12-25T08:54:00.121Z,6.45
2022-12-25T08:56:32.605Z,6.55
2022-12-25T08:59:04.224Z,6.99
2022-12-25T09:01:35.897Z,6.85
2022-12-25T09:04:07.614Z,7.82
2022-12-25T09:06:39.170Z,8.47
2022-12-25T09:09:10.879Z,8.83
2022-12-25T09:11:42.462Z,9.54
2022-12-25T09:14:14.492Z,11.44
2022-12-25T09:16:46.064Z,11.95
2022-12-25T09:19:17.607Z,16.35
2022-12-25T09:21:49.144Z,16.94
2022-12-25T09:24:20.761Z,17.93
2022-12-25T09:26:52.527Z,17.59
2022-12-25T09:29:24.113Z,17.79
2022-12-25T09:31:55.703Z,17.92
2022-12-25T09:34:27.301Z,17.48
2022-12-25T09:36:58.885Z,16.24
2022-12-25T09:39:30.439Z,15.93
2022-12-25T09:42:10.711Z,15.49
2022-12-25T09:44:55.206Z,14.70
2022-12-25T09:47:31.560Z,15.41
2022-12-25T09:50:07.092Z,16.56
2022-12-25T09:52:50.983Z,16.44
2022-12-25T09:55:25.938Z,17.52
2022-12-25T09:58:01.492Z,17.05
2022-12-25T10:00:54.412Z,16.78
2022-12-25T10:03:28.757Z,17.40
2022-12-25T10:06:18.487Z,17.65
2022-12-25T10:09:02.042Z,15.89
2022-12-25T10:11:51.823Z,15.67
2022-12-25T10:14:29.184Z,14.93
2022-12-25T10:17:11.304Z,14.92
2022-12-25T10:20:07.516Z,15.13
2022-12-25T10:22:47.732Z,16.31
2022-12-25T10:25:25.007Z,15.87
2022-12-25T10:28:10.588Z,16.57
2022-12-25T10:30:43.992Z,16.21
2022-12-25T10:33:17.394Z,17.26
2022-12-25T10:35:49.813Z,18.25
2022-12-25T10:38:22.490Z,17.05
2022-12-25T10:41:12.747Z,19.39
2022-12-25T10:43:55.788Z,20.37
2022-12-25T10:46:29.536Z,21.33
2022-12-25T10:49:03.136Z,21.38
2022-12-25T10:51:38.215Z,20.53
2022-12-25T10:54:22.974Z,19.22
2022-12-25T10:56:57.219Z,18.74
2022-12-25T10:59:34.065Z,19.92
2022-12-25T11:02:18.645Z,19.48
2022-12-25T11:04:52.475Z,19.09
2022-12-25T11:07:26.393Z,19.73
2022-12-25T11:10:05.909Z,18.65
2022-12-25T11:12:44.882Z,18.74
2022-12-25T11:15:40.231Z,19.33
2022-12-25T11:18:48.793Z,19.82
2022-12-25T11:21:28.353Z,20.80
2022-12-25T11:24:02.070Z,21.87
2022-12-25T11:26:48.336Z,21.93
2022-12-25T11:29:28.961Z,21.88
2022-12-25T11:32:04.214Z,22.50
2022-12-25T11:34:42.506Z,22.51
2022-12-25T11:37:29.458Z,21.81
2022-12-25T11:40:02.027Z,20.51
2022-12-25T11:42:41.755Z,20.77
2022-12-25T11:45:37.467Z,21.29
2022-12-25T11:48:19.380Z,21.18
2022-12-25T11:51:03.382Z,21.47
2022-12-25T11:53:43.616Z,21.41
2022-12-25T11:56:20.503Z,19.46
2022-12-25T11:59:10.475Z,17.70
2022-12-25T12:01:49.178Z,17.32
2022-12-25T12:04:36.898Z,17.35
2022-12-25T12:07:27.324Z,17.35
2022-12-25T12:10:23.055Z,17.14
2022-12-25T12:13:00.134Z,17.34
2022-12-25T12:15:51.332Z,17.61
2022-12-25T12:18:26.006Z,15.59
2022-12-25T12:21:19.894Z,15.68
2022-12-25T12:24:01.210Z,14.32
2022-12-25T12:26:37.671Z,14.24
2022-12-25T12:29:25.600Z,12.45
2022-12-25T12:32:01.662Z,10.73
2022-12-25T12:34:42.789Z,10.34
2022-12-25T12:37:34.253Z,10.46
2022-12-25T12:40:21.955Z,10.26
2022-12-25T12:42:54.821Z,10.56
2022-12-25T12:45:32.326Z,10.55
2022-12-25T12:48:24.803Z,9.85
2022-12-25T12:51:05.774Z,9.79
2022-12-25T12:53:42.567Z,9.60
2022-12-25T12:56:19.875Z,9.45
2022-12-25T12:58:51.497Z,9.85
2022-12-25T13:01:35.270Z,9.81
2022-12-25T13:04:31.400Z,9.57
2022-12-25T13:07:16.849Z,9.61
2022-12-25T13:10:13.455Z,9.40
2022-12-25T13:12:45.522Z,9.26
2022-12-25T13:15:19.375Z,9.00
2022-12-25T13:17:51.422Z,9.83
2022-12-25T13:20:40.487Z,9.78
2022-12-25T13:23:29.097Z,9.21
2022-12-25T13:26:18.912Z,9.37
2022-12-25T13:28:50.475Z,8.94
2022-12-25T13:31:27.825Z,8.65
2022-12-25T13:34:20.100Z,8.58
2022-12-25T13:36:51.706Z,9.42
2022-12-25T13:39:23.669Z,9.71
2022-12-25T13:41:55.508Z,9.14
2022-12-25T13:44:31.059Z,9.61
2022-12-25T13:47:30.668Z,9.84
2022-12-25T13:50:30.299Z,9.58
2022-12-25T13:53:13.902Z,10.02
2022-12-25T13:55:51.833Z,9.91
2022-12-25T13:58:28.750Z,10.15
2022-12-25T14:01:03.359Z,10.73
2022-12-25T14:03:37.656Z,10.91
2022-12-25T14:06:15.092Z,9.93
2022-12-25T14:08:48.508Z,9.81
2022-12-25T14:11:24.172Z,10.47
2022-12-25T14:14:03.763Z,11.16
2022-12-25T14:16:36.166Z,11.23
2022-12-25T14:19:30.039Z,10.62
2022-12-25T14:22:19.183Z,10.19
2022-12-25T14:24:51.278Z,10.36
2022-12-25T14:27:29.010Z,10.29
2022-12-25T14:30:00.873Z,10.77
2022-12-25T14:32:43.337Z,10.69
2022-12-25T14:35:23.072Z,10.47
2022-12-25T14:38:00.231Z,10.34
2022-12-25T14:40:33.558Z,10.53
2022-12-25T14:43:23.470Z,10.66
2022-12-25T14:46:00.714Z,10.74
2022-12-25T14:48:33.421Z,10.39
2022-12-25T14:51:14.856Z,9.93
2022-12-25T14:53:51.587Z,11.09
2022-12-25T14:56:26.445Z,10.58
2022-12-25T14:58:59.745Z,9.59
2022-12-25T15:01:39.005Z,10.43
2022-12-25T15:04:10.613Z,10.40
2022-12-25T15:06:58.489Z,9.69
2022-12-25T15:09:30.213Z,9.96
2022-12-25T15:12:02.204Z,11.03
2022-12-25T15:14:33.769Z,10.63
2022-12-25T15:17:05.391Z,10.28
2022-12-25T15:19:38.994Z,10.38
2022-12-25T15:22:13.121Z,10.33
2022-12-25T15:24:48.720Z,11.27
2022-12-25T15:27:20.331Z,11.82
2022-12-25T15:32:43.559Z,11.35
2022-12-25T15:35:18.788Z,11.72
2022-12-25T15:37:50.367Z,12.34
2022-12-25T15:40:21.946Z,12.48
2022-12-25T15:42:56.301Z,12.85
2022-12-25T15:45:29.880Z,12.80
2022-12-25T15:48:01.527Z,12.37
2022-12-25T15:50:33.174Z,12.94
2022-12-25T15:53:04.829Z,14.05
2022-12-25T15:55:36.380Z,13.87
2022-12-25T15:58:13.129Z,13.61
2022-12-25T16:00:44.871Z,12.71
2022-12-25T16:03:16.498Z,11.79
2022-12-25T16:05:48.396Z,12.79
2022-12-25T16:08:20.112Z,13.13
2022-12-25T16:10:51.711Z,13.21
2022-12-25T16:13:23.265Z,12.43
2022-12-25T16:15:54.862Z,12.59
2022-12-25T16:18:26.648Z,12.96
2022-12-25T16:20:59.656Z,13.47
2022-12-25T16:23:31.432Z,14.22
2022-12-25T16:26:03.054Z,14.75
2022-12-25T16:28:34.604Z,14.66
2022-12-25T16:31:06.775Z,15.02
2022-12-25T16:33:38.508Z,16.92
2022-12-25T16:36:10.085Z,17.44
2022-12-25T16:38:42.045Z,16.91
2022-12-25T16:41:14.132Z,16.58
2022-12-25T16:43:45.813Z,16.49
2022-12-25T16:46:20.728Z,16.66
2022-12-25T16:48:52.426Z,16.20
2022-12-25T16:51:24.070Z,15.93
2022-12-25T16:53:55.869Z,17.27
2022-12-25T16:56:27.473Z,16.43
2022-12-25T16:58:59.646Z,15.90
2022-12-25T17:01:31.388Z,15.38
2022-12-25T17:04:03.154Z,16.41
2022-12-25T17:06:35.168Z,17.00
2022-12-25T17:09:07.272Z,16.80
2022-12-25T17:11:38.860Z,16.48
2022-12-25T17:14:10.759Z,15.48
2022-12-25T17:16:42.573Z,15.14
2022-12-25T17:19:23.129Z,15.31
2022-12-25T17:21:54.710Z,15.03
2022-12-25T17:24:27.224Z,15.08
2022-12-25T17:26:58.790Z,14.20
2022-12-25T17:29:30.514Z,15.27
2022-12-25T17:32:02.362Z,15.67
2022-12-25T17:34:34.115Z,16.96
2022-12-25T17:37:05.795Z,17.79
2022-12-25T17:39:37.360Z,18.02
2022-12-25T17:42:10.087Z,16.24
2022-12-25T17:44:41.657Z,17.25
2022-12-25T17:47:13.241Z,15.67
2022-12-25T17:49:46.362Z,15.96
2022-12-25T17:52:17.978Z,15.90
2022-12-25T17:54:49.571Z,16.41
2022-12-25T17:57:21.176Z,16.38
2022-12-25T17:59:52.719Z,17.40
2022-12-25T18:02:24.539Z,18.69
2022-12-25T18:04:56.835Z,18.98
2022-12-25T18:07:28.372Z,17.77
2022-12-25T18:09:59.947Z,17.27
2022-12-25T18:12:31.561Z,17.78
2022-12-25T18:15:03.473Z,18.13
2022-12-25T18:17:35.096Z,18.54
2022-12-25T18:20:07.329Z,18.99
2022-12-25T18:22:38.880Z,19.36
2022-12-25T18:25:10.484Z,19.58
2022-12-25T18:27:42.099Z,20.41
2022-12-25T18:30:13.835Z,19.26
2022-12-25T18:32:45.417Z,19.84
2022-12-25T18:35:17.005Z,19.44
2022-12-25T18:37:48.635Z,19.60
2022-12-25T18:40:20.275Z,19.31
2022-12-25T18:42:56.284Z,19.00
2022-12-25T18:45:31.039Z,19.48
2022-12-25T18:48:03.129Z,19.70
2022-12-25T18:50:40.038Z,18.76
2022-12-25T18:53:11.598Z,18.40
2022-12-25T18:55:43.175Z,18.72
2022-12-25T18:58:14.722Z,18.06
2022-12-25T19:00:46.442Z,18.33
2022-12-25T19:03:18.388Z,18.41
2022-12-25T19:05:49.984Z,18.36
2022-12-25T19:08:21.672Z,18.49
2022-12-25T19:10:53.230Z,17.56
2022-12-25T19:13:24.835Z,18.39
2022-12-25T19:15:59.958Z,18.87
2022-12-25T19:18:31.921Z,16.72
2022-12-25T19:21:05.336Z,16.89
2022-12-25T19:23:37.269Z,17.40
2022-12-25T19:26:10.466Z,16.78
2022-12-25T19:28:42.045Z,19.06
2022-12-25T19:31:14.043Z,22.59
2022-12-25T19:33:45.667Z,26.08
2022-12-25T19:36:17.355Z,23.53
2022-12-25T19:38:48.922Z,20.79
2022-12-25T19:41:20.636Z,19.66
2022-12-25T19:43:52.647Z,19.54
2022-12-25T19:46:31.945Z,18.90
2022-12-25T19:49:04.121Z,21.64
2022-12-25T19:51:38.576Z,22.74
2022-12-25T19:54:14.614Z,21.11
2022-12-25T19:56:46.741Z,21.05
2022-12-25T19:59:18.329Z,20.01
2022-12-25T20:01:50.597Z,20.09
2022-12-25T20:04:22.663Z,20.82
2022-12-25T20:06:54.196Z,19.28
2022-12-25T20:09:25.804Z,18.65
2022-12-25T20:11:57.339Z,20.39
2022-12-25T20:14:28.964Z,17.88
2022-12-25T20:17:00.728Z,17.73
2022-12-25T20:19:32.356Z,19.16
2022-12-25T20:22:05.015Z,22.84
2022-12-25T20:24:36.560Z,23.01
2022-12-25T20:27:08.129Z,22.36
2022-12-25T20:29:39.697Z,20.08
2022-12-25T20:32:11.396Z,19.77
2022-12-25T20:34:43.070Z,17.79
2022-12-25T20:37:14.654Z,17.10
2022-12-25T20:39:46.238Z,16.92
2022-12-25T20:42:17.803Z,16.79
2022-12-25T20:44:49.529Z,17.17
2022-12-25T20:47:21.119Z,17.33
2022-12-25T20:49:52.692Z,17.03
2022-12-25T20:52:24.417Z,16.92
2022-12-25T20:54:56.032Z,16.74
2022-12-25T20:57:27.634Z,16.69
2022-12-25T20:59:59.198Z,16.98
2022-12-25T21:02:34.635Z,16.53
2022-12-25T21:05:08.240Z,16.62
2022-12-25T21:07:39.814Z,17.62
2022-12-25T21:10:11.553Z,17.62
2022-12-25T21:12:43.085Z,16.73
2022-12-25T21:15:15.860Z,16.98
2022-12-25T21:17:47.626Z,17.39
2022-12-25T21:20:19.196Z,18.29
2022-12-25T21:22:50.719Z,18.21
2022-12-25T21:25:22.244Z,18.63
2022-12-25T21:27:54.008Z,17.27
2022-12-25T21:30:25.730Z,17.80
2022-12-25T21:32:57.344Z,17.79
2022-12-25T21:35:28.964Z,17.59
2022-12-25T21:38:00.559Z,18.28
2022-12-25T21:40:35.172Z,18.41
2022-12-25T21:43:06.946Z,18.16
2022-12-25T21:45:38.525Z,17.53
2022-12-25T21:48:10.142Z,17.70
2022-12-25T21:50:41.714Z,17.92
2022-12-25T21:53:17.889Z,16.23
2022-12-25T21:56:00.566Z,18.57
2022-12-25T21:58:32.257Z,17.87
2022-12-25T22:01:04.246Z,16.09
2022-12-25T22:03:36.146Z,16.73
2022-12-25T22:06:07.787Z,16.30
2022-12-25T22:08:39.342Z,16.81
2022-12-25T22:11:10.921Z,18.40
2022-12-25T22:13:42.608Z,17.83
2022-12-25T22:16:14.271Z,18.41
2022-12-25T22:18:46.077Z,17.83
2022-12-25T22:21:19.071Z,17.44
2022-12-25T22:23:51.121Z,16.85
2022-12-25T22:26:22.672Z,16.75
2022-12-25T22:28:54.570Z,16.30
2022-12-25T22:31:26.379Z,15.94
2022-12-25T22:34:00.949Z,14.14
2022-12-25T22:36:32.509Z,15.36
2022-12-25T22:39:04.101Z,14.75
2022-12-25T22:41:35.782Z,14.44
2022-12-25T22:44:17.080Z,13.77
2022-12-25T22:46:49.813Z,13.91
2022-12-25T22:49:21.642Z,13.90
2022-12-25T22:51:53.837Z,14.77
2022-12-25T22:54:29.631Z,13.76
2022-12-25T22:57:01.257Z,15.04
2022-12-25T22:59:33.200Z,16.44
2022-12-25T23:02:04.916Z,17.19
2022-12-25T23:04:36.748Z,16.24
2022-12-25T23:07:08.356Z,15.62
2022-12-25T23:09:41.963Z,14.90
2022-12-25T23:12:13.556Z,16.07
2022-12-25T23:14:45.111Z,15.63
2022-12-25T23:17:16.666Z,15.66
2022-12-25T23:19:48.217Z,15.44
2022-12-25T23:22:19.808Z,15.95
2022-12-25T23:24:51.382Z,16.42
2022-12-25T23:27:22.984Z,15.70
2022-12-25T23:29:54.637Z,15.35
2022-12-25T23:32:26.708Z,14.40
2022-12-25T23:34:58.312Z,13.80
2022-12-25T23:37:30.051Z,13.76
2022-12-25T23:40:02.846Z,14.71
2022-12-25T23:42:34.450Z,14.58
2022-12-25T23:45:06.522Z,13.88
2022-12-25T23:47:38.107Z,13.44
2022-12-25T23:50:09.779Z,13.71
2022-12-25T23:52:41.333Z,12.87
2022-12-25T23:55:12.911Z,12.85
2022-12-25T23:57:44.484Z,13.79
